Time;durP1;ratioP1;P1;durP2;ratioP2;P2;SDS_P1;SDS_P2;PMS_P1;PMS_P2;Temp;Humidity;BMP_temperature;BMP_pressure;BME280_temperature;BME280_humidity;BME280_pressure;Samples;Min_cycle;Max_cycle;Signal;HPM_P1;HPM_P2
2023/06/26 00:01:32;;;;;;;4.03;2.72;;;;;;;20.39;100.00;100561.09;5121084;28;20496;-75
2023/06/26 00:04:03;;;;;;;8.18;3.28;;;;;;;20.42;100.00;100562.66;5153220;28;20030;-75
2023/06/26 00:06:33;;;;;;;3.95;3.13;;;;;;;20.42;100.00;100558.22;5144645;28;20050;-75
2023/06/26 00:09:03;;;;;;;4.90;3.35;;;;;;;20.33;100.00;100558.06;5147664;28;20029;-75
2023/06/26 00:11:34;;;;;;;5.85;3.25;;;;;;;20.41;100.00;100548.56;5143871;28;20037;-75
2023/06/26 00:14:04;;;;;;;8.93;3.20;;;;;;;20.39;100.00;100553.13;5146482;28;20031;-75
2023/06/26 00:16:34;;;;;;;6.55;3.35;;;;;;;20.34;100.00;100550.00;5153685;28;20038;-74
2023/06/26 00:19:04;;;;;;;4.63;2.90;;;;;;;20.27;100.00;100538.13;5150253;28;20027;-75
2023/06/26 00:21:35;;;;;;;4.97;2.97;;;;;;;20.24;100.00;100538.38;5132418;28;20034;-76
2023/06/26 00:24:05;;;;;;;5.28;3.22;;;;;;;20.28;100.00;100539.81;5129824;28;20107;-75
2023/06/26 00:26:36;;;;;;;4.43;2.90;;;;;;;20.27;100.00;100542.59;5131332;28;20033;-75
2023/06/26 00:29:06;;;;;;;5.97;3.20;;;;;;;20.21;100.00;100543.06;5149628;28;20065;-75
2023/06/26 00:31:37;;;;;;;6.35;3.55;;;;;;;20.10;100.00;100537.72;5149898;28;20276;-75
2023/06/26 00:34:08;;;;;;;4.95;3.13;;;;;;;20.19;100.00;100545.84;5118404;28;20070;-75
2023/06/26 00:36:38;;;;;;;4.40;3.00;;;;;;;20.16;100.00;100540.72;5136053;28;20042;-75
2023/06/26 00:39:11;;;;;;;4.90;3.30;;;;;;;20.16;100.00;100535.44;5152442;28;20113;-75
2023/06/26 00:41:42;;;;;;;4.43;3.08;;;;;;;20.17;100.00;100544.25;5156083;28;20089;-75
2023/06/26 00:44:12;;;;;;;4.45;3.08;;;;;;;20.12;100.00;100541.94;5138494;28;20014;-75
2023/06/26 00:46:42;;;;;;;5.40;3.28;;;;;;;20.05;100.00;100542.50;5140774;28;20026;-75
2023/06/26 00:49:13;;;;;;;5.63;3.22;;;;;;;20.15;100.00;100535.56;5155784;28;20036;-75
2023/06/26 00:51:43;;;;;;;6.35;3.40;;;;;;;20.04;100.00;100535.50;5158279;28;20026;-75
2023/06/26 00:54:19;;;;;;;5.40;3.30;;;;;;;20.07;100.00;100541.44;5134147;28;20563;-75
2023/06/26 00:56:50;;;;;;;5.32;3.50;;;;;;;19.93;100.00;100527.50;5151902;28;20026;-72
2023/06/26 00:59:20;;;;;;;5.88;3.10;;;;;;;19.99;100.00;100532.31;5151496;28;20040;-75
2023/06/26 01:01:50;;;;;;;5.53;3.28;;;;;;;19.80;100.00;100532.84;5137082;28;20037;-74
2023/06/26 01:04:21;;;;;;;6.00;3.33;;;;;;;19.64;100.00;100526.97;5134997;28;20023;-75
2023/06/26 01:06:51;;;;;;;6.65;3.50;;;;;;;19.52;100.00;100527.03;5140008;28;20022;-74
2023/06/26 01:09:23;;;;;;;5.70;3.30;;;;;;;19.55;100.00;100514.41;5154450;28;20092;-74
2023/06/26 01:11:53;;;;;;;5.30;3.20;;;;;;;19.56;100.00;100516.09;5157954;28;20425;-74
2023/06/26 01:14:23;;;;;;;4.32;3.25;;;;;;;19.55;100.00;100516.19;5156345;28;20109;-75
2023/06/26 01:16:57;;;;;;;5.68;3.20;;;;;;;19.70;100.00;100513.28;5140120;28;20027;-74
2023/06/26 01:19:30;;;;;;;5.47;3.33;;;;;;;19.63;100.00;100516.50;5134725;28;20465;-74
2023/06/26 01:22:15;;;;;;;6.43;3.20;;;;;;;19.59;100.00;100512.38;5135242;28;20563;-75
2023/06/26 01:25:17;;;;;;;6.85;3.47;;;;;;;19.57;100.00;100511.63;5155739;28;20539;-75
2023/06/26 01:27:50;;;;;;;5.60;2.90;;;;;;;19.74;100.00;100506.78;5151876;28;20146;-72
2023/06/26 01:30:22;;;;;;;7.43;3.40;;;;;;;19.70;100.00;100505.31;5133013;28;20034;-75
2023/06/26 01:32:52;;;;;;;4.22;2.92;;;;;;;19.78;100.00;100504.75;5157248;28;20126;-74
2023/06/26 01:35:23;;;;;;;5.60;3.38;;;;;;;19.59;100.00;100504.44;5155239;28;20109;-75
2023/06/26 01:37:53;;;;;;;4.43;3.30;;;;;;;19.44;100.00;100503.72;5147455;28;20026;-74
2023/06/26 01:40:24;;;;;;;5.72;3.40;;;;;;;19.39;100.00;100499.69;5134347;28;20035;-75
2023/06/26 01:42:56;;;;;;;7.80;3.50;;;;;;;19.29;100.00;100494.22;5138857;28;20073;-74
2023/06/26 01:45:31;;;;;;;5.03;3.22;;;;;;;19.37;100.00;100501.63;5157251;28;20281;-74
2023/06/26 01:48:06;;;;;;;5.03;3.15;;;;;;;19.24;100.00;100491.06;5133603;28;20026;-74
2023/06/26 01:50:38;;;;;;;5.93;3.50;;;;;;;19.17;100.00;100492.47;5131499;28;20035;-74
2023/06/26 01:53:12;;;;;;;4.88;3.03;;;;;;;19.12;100.00;100486.63;5152105;28;20037;-74
2023/06/26 01:56:03;;;;;;;6.72;3.10;;;;;;;19.08;100.00;100474.56;5155318;28;20034;-74
2023/06/26 01:58:36;;;;;;;4.68;3.05;;;;;;;19.09;100.00;100481.53;5153850;28;20106;-74
2023/06/26 02:01:07;;;;;;;6.13;3.70;;;;;;;19.07;100.00;100477.31;5149289;28;20081;-72
2023/06/26 02:03:37;;;;;;;7.93;3.60;;;;;;;19.02;100.00;100475.00;5155183;28;20026;-75
2023/06/26 02:06:07;;;;;;;6.15;3.70;;;;;;;19.00;100.00;100471.63;5151056;28;20092;-73
2023/06/26 02:08:38;;;;;;;9.35;3.30;;;;;;;19.10;100.00;100482.41;5150894;28;20108;-74
2023/06/26 02:11:08;;;;;;;5.15;3.30;;;;;;;19.10;100.00;100485.88;5152283;28;20030;-74
2023/06/26 02:13:38;;;;;;;6.28;3.35;;;;;;;19.20;100.00;100465.75;5148028;28;20089;-75
2023/06/26 02:16:08;;;;;;;5.35;3.30;;;;;;;19.20;100.00;100471.06;5139366;28;20037;-74
2023/06/26 02:18:39;;;;;;;6.28;3.60;;;;;;;19.18;100.00;100465.03;5136032;28;20022;-74
2023/06/26 02:21:09;;;;;;;8.35;4.20;;;;;;;19.15;100.00;100465.22;5129634;28;20051;-75
2023/06/26 02:23:40;;;;;;;7.60;3.45;;;;;;;19.11;100.00;100466.38;5131164;28;20105;-74
2023/06/26 02:26:11;;;;;;;4.72;3.08;;;;;;;19.16;100.00;100460.75;5146962;28;20027;-74
2023/06/26 02:28:41;;;;;;;9.32;3.58;;;;;;;19.11;100.00;100463.72;5147497;28;20025;-75
2023/06/26 02:31:11;;;;;;;6.25;3.40;;;;;;;19.07;100.00;100466.72;5146484;28;20409;-74
2023/06/26 02:33:42;;;;;;;5.13;3.50;;;;;;;19.01;100.00;100465.38;5146995;28;20034;-74
2023/06/26 02:36:12;;;;;;;5.88;3.33;;;;;;;18.86;100.00;100458.50;5126157;28;20030;-74
2023/06/26 02:38:42;;;;;;;10.05;3.67;;;;;;;18.86;100.00;100457.66;5148404;28;20406;-75
2023/06/26 02:41:13;;;;;;;6.63;3.50;;;;;;;18.75;100.00;100453.13;5148137;28;20067;-74
2023/06/26 02:43:43;;;;;;;6.45;4.20;;;;;;;18.63;100.00;100449.63;5150808;28;20276;-74
2023/06/26 02:46:13;;;;;;;6.00;3.53;;;;;;;18.66;100.00;100452.09;5129640;28;20030;-74
2023/06/26 02:48:44;;;;;;;6.78;3.83;;;;;;;18.74;100.00;100448.78;5131197;28;20023;-74
2023/06/26 02:51:14;;;;;;;6.47;3.80;;;;;;;18.76;100.00;100446.84;5145960;28;20065;-74
2023/06/26 02:53:44;;;;;;;6.50;3.60;;;;;;;18.73;100.00;100453.34;5149465;28;20459;-74
2023/06/26 02:56:15;;;;;;;6.10;3.90;;;;;;;18.65;100.00;100445.09;5128433;28;20093;-74
2023/06/26 02:58:45;;;;;;;6.85;3.05;;;;;;;18.80;100.00;100445.69;5147342;28;20281;-75
2023/06/26 03:01:15;;;;;;;7.53;3.92;;;;;;;18.69;100.00;100439.47;5140614;28;20038;-74
2023/06/26 03:03:46;;;;;;;6.65;3.83;;;;;;;18.76;100.00;100436.28;5130853;28;20022;-75
2023/06/26 03:06:17;;;;;;;6.97;3.75;;;;;;;18.70;100.00;100429.72;5127399;28;20022;-75
2023/06/26 03:08:47;;;;;;;4.40;3.20;;;;;;;18.63;100.00;100436.41;5146520;28;20037;-74
2023/06/26 03:11:17;;;;;;;9.07;3.75;;;;;;;18.57;100.00;100437.69;5130447;28;20093;-74
2023/06/26 03:13:48;;;;;;;5.78;3.90;;;;;;;18.55;100.00;100433.44;5147038;28;20140;-72
2023/06/26 03:16:18;;;;;;;11.52;3.88;;;;;;;18.60;100.00;100433.97;5141995;28;20037;-75
2023/06/26 03:18:48;;;;;;;7.18;3.50;;;;;;;18.50;100.00;100428.47;5146150;28;20030;-73
2023/06/26 03:21:18;;;;;;;11.23;3.95;;;;;;;18.56;100.00;100427.22;5125481;28;20030;-74
2023/06/26 03:23:49;;;;;;;5.07;3.42;;;;;;;18.59;100.00;100427.84;5133342;28;20404;-74
2023/06/26 03:26:19;;;;;;;6.53;3.40;;;;;;;18.59;100.00;100432.28;5150945;28;20023;-74
2023/06/26 03:28:49;;;;;;;8.63;3.63;;;;;;;18.51;100.00;100430.16;5153185;28;20120;-74
2023/06/26 03:31:20;;;;;;;4.72;3.50;;;;;;;18.57;100.00;100423.59;5138327;28;20026;-74
2023/06/26 03:33:50;;;;;;;6.05;3.30;;;;;;;18.51;100.00;100432.00;5152016;28;20422;-74
2023/06/26 03:36:21;;;;;;;6.32;3.70;;;;;;;18.64;100.00;100427.50;5127127;28;20057;-74
2023/06/26 03:38:56;;;;;;;8.35;3.88;;;;;;;18.64;100.00;100425.72;5129696;28;20035;-74
2023/06/26 03:41:27;;;;;;;6.47;3.30;;;;;;;18.73;100.00;100420.59;5150796;28;20031;-74
2023/06/26 03:43:57;;;;;;;7.50;3.55;;;;;;;18.73;100.00;100423.25;5131906;28;20022;-74
2023/06/26 03:46:29;;;;;;;9.82;3.80;;;;;;;18.71;100.00;100420.81;5148571;28;20027;-75
2023/06/26 03:48:59;;;;;;;7.50;3.40;;;;;;;18.85;100.00;100413.56;5146719;28;20023;-74
2023/06/26 03:51:29;;;;;;;8.70;3.70;;;;;;;18.97;100.00;100416.19;5146649;28;20042;-74
2023/06/26 03:53:59;;;;;;;9.65;3.50;;;;;;;19.09;100.00;100411.81;5131578;28;20038;-74
2023/06/26 03:56:30;;;;;;;4.75;3.00;;;;;;;19.18;100.00;100406.72;5134710;28;20245;-75
2023/06/26 03:59:00;;;;;;;6.53;3.50;;;;;;;19.19;100.00;100400.47;5132492;28;20030;-75
2023/06/26 04:01:30;;;;;;;7.53;3.10;;;;;;;19.19;100.00;100400.47;5146551;28;20046;-74
2023/06/26 04:04:00;;;;;;;5.78;3.15;;;;;;;19.35;100.00;100398.38;5127339;28;20029;-74
2023/06/26 04:06:34;;;;;;;5.47;3.28;;;;;;;19.25;100.00;100402.66;5137329;28;20031;-74
2023/06/26 04:09:04;;;;;;;6.47;3.15;;;;;;;19.25;100.00;100402.66;5133109;28;20412;-75
2023/06/26 04:11:34;;;;;;;5.72;3.20;;;;;;;19.31;100.00;100402.19;5152893;28;20037;-75
2023/06/26 04:14:05;;;;;;;6.15;3.47;;;;;;;19.41;100.00;100397.91;5132957;28;20538;-75
2023/06/26 04:16:35;;;;;;;6.95;3.40;;;;;;;19.54;100.00;100398.69;5150686;28;20019;-74
2023/06/26 04:19:05;;;;;;;7.60;3.40;;;;;;;19.52;100.00;100395.31;5132422;28;20027;-75
2023/06/26 04:21:36;;;;;;;5.00;3.22;;;;;;;19.55;100.00;100395.06;5148033;28;20056;-74
2023/06/26 04:24:06;;;;;;;7.32;3.08;;;;;;;19.55;100.00;100397.72;5132238;28;20102;-74
2023/06/26 04:26:40;;;;;;;6.20;3.65;;;;;;;19.66;100.00;100394.28;5133699;28;20027;-74
2023/06/26 04:29:11;;;;;;;5.47;3.40;;;;;;;19.78;100.00;100396.00;5149580;28;20026;-75
2023/06/26 04:31:41;;;;;;;7.30;3.60;;;;;;;19.93;100.00;100394.84;5132865;28;20022;-75
2023/06/26 04:34:13;;;;;;;7.97;3.45;;;;;;;19.96;100.00;100392.78;5134247;28;20318;-75
2023/06/26 04:36:47;;;;;;;6.50;3.65;;;;;;;20.07;100.00;100390.19;5149024;28;20435;-75
2023/06/26 04:39:18;;;;;;;5.72;3.30;;;;;;;20.42;100.00;100387.41;5147034;28;20521;-74
2023/06/26 04:41:48;;;;;;;5.75;3.42;;;;;;;20.74;100.00;100389.22;5146612;28;20030;-73
2023/06/26 04:44:18;;;;;;;4.47;2.83;;;;;;;21.17;100.00;100377.66;5131002;28;20038;-75
2023/06/26 04:46:51;;;;;;;5.55;3.10;;;;;;;22.19;99.79;100378.72;5130680;28;20030;-73
2023/06/26 04:49:22;;;;;;;6.07;3.10;;;;;;;24.08;88.70;100370.22;5130430;28;20026;-75
2023/06/26 04:51:53;;;;;;;5.60;2.40;;;;;;;25.65;80.29;100360.72;5130537;28;20033;-75
2023/06/26 04:54:23;;;;;;;6.68;2.75;;;;;;;26.47;77.82;100361.13;5148160;28;20286;-75
2023/06/26 04:56:53;;;;;;;3.95;2.40;;;;;;;27.03;74.00;100352.31;5145670;28;20038;-75
2023/06/26 04:59:24;;;;;;;7.43;2.55;;;;;;;28.45;71.61;100354.34;5144552;28;20094;-75
2023/06/26 05:01:54;;;;;;;5.27;2.23;;;;;;;28.61;68.67;100359.66;5139388;28;21621;-75
2023/06/26 05:04:24;;;;;;;6.00;2.40;;;;;;;28.51;71.88;100358.19;5122612;28;20416;-75
2023/06/26 05:06:54;;;;;;;3.17;2.03;;;;;;;29.02;69.00;100358.47;5141293;28;20035;-73
2023/06/26 05:09:25;;;;;;;4.70;2.00;;;;;;;30.10;67.18;100359.84;5148483;28;20589;-75
2023/06/26 05:11:55;;;;;;;3.35;1.98;;;;;;;29.63;68.04;100353.88;5151863;28;20313;-75
2023/06/26 05:14:25;;;;;;;4.47;2.28;;;;;;;29.09;70.89;100354.06;5132172;28;20121;-76
2023/06/26 05:16:56;;;;;;;4.47;2.17;;;;;;;29.96;68.30;100346.31;5132623;28;20460;-74
2023/06/26 05:19:26;;;;;;;3.60;1.97;;;;;;;30.17;64.53;100343.75;5151282;28;20332;-75
2023/06/26 05:21:56;;;;;;;3.10;2.10;;;;;;;29.44;67.20;100348.91;5146279;28;20022;-76
2023/06/26 05:24:28;;;;;;;3.53;2.13;;;;;;;29.95;67.30;100341.94;5117973;28;20278;-75
2023/06/26 05:26:58;;;;;;;5.78;1.98;;;;;;;30.13;64.93;100342.47;5132071;28;20576;-75
2023/06/26 05:29:30;;;;;;;3.25;2.20;;;;;;;30.35;65.55;100339.69;5149903;28;20035;-75
2023/06/26 05:32:01;;;;;;;3.58;2.10;;;;;;;30.85;65.82;100332.47;5148172;28;20409;-76
2023/06/26 05:34:33;;;;;;;5.00;2.35;;;;;;;30.09;67.37;100339.28;5133775;28;20290;-76
2023/06/26 05:37:04;;;;;;;3.47;2.15;;;;;;;29.87;68.26;100342.00;5129459;28;20051;-75
2023/06/26 05:39:35;;;;;;;4.93;2.20;;;;;;;30.21;65.73;100331.56;5136004;28;20038;-75
2023/06/26 05:42:05;;;;;;;3.88;2.20;;;;;;;28.99;70.35;100334.59;5148409;28;20029;-75
2023/06/26 05:44:36;;;;;;;4.07;2.05;;;;;;;29.60;69.28;100332.66;5131490;28;20095;-75
2023/06/26 05:47:06;;;;;;;3.77;2.20;;;;;;;29.01;69.73;100332.56;5144861;28;20030;-73
2023/06/26 05:49:37;;;;;;;3.17;2.10;;;;;;;28.56;71.24;100332.44;5147236;28;20289;-75
2023/06/26 05:52:08;;;;;;;3.42;2.20;;;;;;;28.66;70.92;100325.00;5139649;28;20034;-75
2023/06/26 05:54:39;;;;;;;4.00;2.47;;;;;;;27.68;74.53;100338.00;5140394;28;20031;-75
2023/06/26 05:57:12;;;;;;;4.00;2.60;;;;;;;27.37;75.90;100318.19;5116597;28;20469;-72
2023/06/26 05:59:43;;;;;;;4.25;2.30;;;;;;;27.17;78.45;100316.81;5139890;28;20023;-75
2023/06/26 06:02:13;;;;;;;3.88;2.53;;;;;;;26.30;82.76;100319.16;5124920;28;20061;-75
2023/06/26 06:04:44;;;;;;;4.10;2.40;;;;;;;26.39;82.95;100320.88;5128242;28;20070;-74
2023/06/26 06:07:14;;;;;;;4.18;2.55;;;;;;;26.44;82.87;100319.41;5141351;28;20026;-74
2023/06/26 06:09:45;;;;;;;5.88;2.67;;;;;;;26.62;82.71;100324.69;5122056;28;20031;-74
2023/06/26 06:12:15;;;;;;;4.10;2.60;;;;;;;26.86;81.16;100314.88;5125116;28;20035;-74
2023/06/26 06:14:45;;;;;;;4.40;2.50;;;;;;;26.65;82.36;100313.66;5142561;28;20294;-75
2023/06/26 06:17:15;;;;;;;6.47;2.45;;;;;;;27.42;78.76;100313.13;5120346;28;20462;-74
2023/06/26 06:19:46;;;;;;;6.72;2.30;;;;;;;27.24;80.08;100312.47;5137742;28;20113;-75
2023/06/26 06:22:17;;;;;;;3.55;2.63;;;;;;;27.73;77.29;100314.16;5140926;28;20027;-74
2023/06/26 06:24:49;;;;;;;4.93;2.50;;;;;;;27.72;77.91;100301.75;5139383;28;20031;-74
2023/06/26 06:27:19;;;;;;;3.70;2.63;;;;;;;28.10;76.87;100305.53;5121903;28;20080;-75
2023/06/26 06:29:49;;;;;;;3.23;2.07;;;;;;;28.53;76.69;100311.28;5146220;28;20300;-74
2023/06/26 06:32:20;;;;;;;3.78;2.40;;;;;;;28.62;72.83;100306.72;5127808;28;20277;-75
2023/06/26 06:34:50;;;;;;;4.15;2.50;;;;;;;28.99;71.45;100305.00;5120853;28;20449;-74
2023/06/26 06:37:20;;;;;;;4.40;2.23;;;;;;;28.70;73.51;100304.81;5124926;28;20054;-75
2023/06/26 06:39:50;;;;;;;3.63;2.20;;;;;;;28.10;75.65;100311.72;5124308;28;20652;-74
2023/06/26 06:42:21;;;;;;;4.13;2.67;;;;;;;28.04;76.04;100296.31;5140785;28;20278;-75
2023/06/26 06:44:51;;;;;;;2.78;2.25;;;;;;;28.40;75.99;100302.06;5141846;28;20353;-74
2023/06/26 06:47:21;;;;;;;4.47;2.63;;;;;;;29.28;72.59;100299.75;5138412;28;20177;-73
2023/06/26 06:49:51;;;;;;;2.85;2.10;;;;;;;29.13;71.61;100297.00;5123627;28;20301;-74
2023/06/26 06:52:22;;;;;;;4.97;2.47;;;;;;;29.03;73.45;100296.38;5145623;28;20564;-74
2023/06/26 06:54:53;;;;;;;4.22;2.30;;;;;;;28.83;74.33;100288.91;5149363;28;20033;-74
2023/06/26 06:57:25;;;;;;;3.97;2.30;;;;;;;29.25;74.10;100289.34;5140378;28;20027;-72
2023/06/26 06:59:55;;;;;;;5.10;2.50;;;;;;;29.13;74.58;100283.53;5152587;28;20041;-74
2023/06/26 07:02:25;;;;;;;4.30;2.75;;;;;;;29.98;70.71;100276.88;5133513;28;20022;-73
2023/06/26 07:04:55;;;;;;;4.03;2.37;;;;;;;29.87;70.75;100277.31;5146930;28;20030;-74
2023/06/26 07:07:29;;;;;;;4.33;2.37;;;;;;;30.30;70.16;100281.91;5142467;28;20274;-74
2023/06/26 07:10:05;;;;;;;3.47;2.30;;;;;;;29.88;71.27;100282.53;5143631;28;20808;-74
2023/06/26 07:12:36;;;;;;;5.07;2.58;;;;;;;30.64;70.42;100279.47;5141641;28;20035;-74
2023/06/26 07:15:07;;;;;;;3.45;2.30;;;;;;;30.28;68.92;100276.69;5123480;28;20417;-75
2023/06/26 07:17:38;;;;;;;4.03;2.40;;;;;;;29.94;69.53;100280.97;5140205;28;20092;-74
2023/06/26 07:20:14;;;;;;;3.13;2.30;;;;;;;29.60;72.91;100277.94;5133409;28;20018;-74
2023/06/26 07:22:45;;;;;;;6.45;2.60;;;;;;;29.33;74.08;100273.09;5147173;28;20485;-74
2023/06/26 07:25:16;;;;;;;4.82;2.30;;;;;;;30.31;71.90;100268.25;5148326;28;20034;-75
2023/06/26 07:27:46;;;;;;;4.88;2.17;;;;;;;31.12;69.61;100266.97;5127569;28;20025;-74
2023/06/26 07:30:16;;;;;;;4.47;2.40;;;;;;;31.43;68.07;100278.28;5150146;28;20503;-75
2023/06/26 07:32:46;;;;;;;2.97;2.20;;;;;;;31.74;67.99;100281.44;5143500;28;20394;-75
2023/06/26 07:35:17;;;;;;;4.55;2.47;;;;;;;31.41;68.64;100285.75;5143886;28;20078;-75
2023/06/26 07:37:47;;;;;;;4.03;2.42;;;;;;;32.57;66.53;100279.47;5129675;28;20027;-74
2023/06/26 07:40:18;;;;;;;3.63;2.20;;;;;;;31.36;67.41;100282.78;5139909;28;20131;-74
2023/06/26 07:42:48;;;;;;;5.75;2.50;;;;;;;31.13;68.69;100278.59;5140073;28;20154;-73
2023/06/26 07:45:19;;;;;;;3.78;2.50;;;;;;;30.39;73.30;100288.91;5125271;28;20050;-74
2023/06/26 07:47:50;;;;;;;3.55;2.30;;;;;;;31.25;71.31;100285.16;5129996;28;20026;-75
2023/06/26 07:50:22;;;;;;;3.43;2.67;;;;;;;31.97;68.62;100273.06;5131915;28;20404;-75
2023/06/26 07:52:53;;;;;;;6.97;2.53;;;;;;;31.88;67.04;100277.81;5147699;28;20027;-74
2023/06/26 07:55:23;;;;;;;5.03;2.47;;;;;;;32.22;66.98;100267.00;5124416;28;20046;-75
2023/06/26 07:57:55;;;;;;;2.95;2.28;;;;;;;33.04;66.88;100269.44;5129376;28;20129;-74
2023/06/26 08:00:26;;;;;;;3.08;2.47;;;;;;;32.61;66.34;100266.38;5127500;28;20038;-74
2023/06/26 08:02:56;;;;;;;4.68;2.45;;;;;;;33.23;65.24;100274.09;5145414;28;20030;-75
2023/06/26 08:05:26;;;;;;;3.90;2.57;;;;;;;33.14;64.95;100277.97;5148514;28;20277;-73
2023/06/26 08:07:57;;;;;;;3.22;2.25;;;;;;;33.01;62.41;100279.84;5128306;28;20022;-74
2023/06/26 08:10:27;;;;;;;3.23;2.23;;;;;;;34.16;56.52;100268.41;5145039;28;20027;-74
2023/06/26 08:12:58;;;;;;;4.10;2.38;;;;;;;34.37;55.69;100274.41;5147298;28;20033;-75
2023/06/26 08:15:28;;;;;;;3.75;2.20;;;;;;;33.89;54.48;100277.63;5129963;28;20023;-74
2023/06/26 08:17:58;;;;;;;4.40;2.80;;;;;;;34.77;53.54;100277.81;5146503;28;20389;-75
2023/06/26 08:20:29;;;;;;;3.60;2.33;;;;;;;35.63;53.46;100270.56;5130530;28;20119;-74
2023/06/26 08:22:59;;;;;;;3.40;2.33;;;;;;;35.73;52.03;100264.59;5150662;28;20033;-75
2023/06/26 08:25:30;;;;;;;5.10;2.30;;;;;;;34.54;53.63;100266.63;5151422;28;20481;-74
2023/06/26 08:28:00;;;;;;;2.80;2.03;;;;;;;35.37;52.32;100275.34;5142724;28;20077;-75
2023/06/26 08:30:32;;;;;;;3.22;2.30;;;;;;;35.31;52.24;100271.63;5137810;28;20117;-74
2023/06/26 08:33:02;;;;;;;6.10;2.30;;;;;;;34.96;54.37;100266.00;5148119;28;20039;-76
2023/06/26 08:35:32;;;;;;;6.07;2.30;;;;;;;35.99;52.90;100270.63;5130209;28;20131;-75
2023/06/26 08:38:03;;;;;;;3.90;2.33;;;;;;;36.77;50.91;100269.75;5126403;28;20078;-75
2023/06/26 08:40:34;;;;;;;3.95;2.53;;;;;;;36.91;51.42;100264.94;5142673;28;20035;-75
2023/06/26 08:43:05;;;;;;;8.77;2.60;;;;;;;36.09;50.44;100279.16;5147975;28;20029;-76
2023/06/26 08:45:35;;;;;;;3.70;2.70;;;;;;;34.27;52.02;100270.47;5129312;28;20223;-75
2023/06/26 08:48:09;;;;;;;4.50;2.60;;;;;;;35.79;52.16;100269.16;5145235;28;20041;-75
2023/06/26 08:50:41;;;;;;;7.07;2.77;;;;;;;36.51;50.45;100270.03;5126177;28;20069;-75
2023/06/26 08:53:34;;;;;;;4.45;2.65;;;;;;;37.11;49.71;100252.69;5149337;28;20188;-75
2023/06/26 08:56:06;;;;;;;6.45;2.45;;;;;;;36.26;50.66;100250.25;5143545;28;20022;-75
2023/06/26 08:58:37;;;;;;;3.67;2.50;;;;;;;35.99;50.13;100265.19;5131041;28;20388;-75
2023/06/26 09:01:07;;;;;;;3.92;2.38;;;;;;;36.01;51.11;100262.25;5141227;28;20034;-76
2023/06/26 09:03:38;;;;;;;3.23;2.27;;;;;;;36.30;49.47;100247.91;5149099;28;20058;-75
2023/06/26 09:06:08;;;;;;;5.23;2.90;;;;;;;36.82;50.60;100256.25;5129824;28;20286;-76
2023/06/26 09:08:40;;;;;;;4.23;2.70;;;;;;;36.41;50.32;100264.31;5147712;28;20464;-75
2023/06/26 09:11:11;;;;;;;5.20;2.65;;;;;;;37.42;47.86;100253.22;5128697;28;20028;-75
2023/06/26 09:13:42;;;;;;;6.05;2.75;;;;;;;37.97;47.97;100251.91;5131913;28;20065;-76
2023/06/26 09:16:13;;;;;;;5.43;2.83;;;;;;;36.57;49.53;100247.38;5147440;28;20045;-76
2023/06/26 09:18:46;;;;;;;4.95;2.42;;;;;;;36.48;50.12;100247.91;5129743;28;20022;-75
2023/06/26 09:21:16;;;;;;;7.43;2.85;;;;;;;35.82;50.76;100253.22;5124003;28;20026;-75
2023/06/26 09:23:46;;;;;;;4.93;2.73;;;;;;;34.30;53.58;100251.03;5148825;28;20121;-76
2023/06/26 09:26:17;;;;;;;4.53;2.83;;;;;;;36.43;51.85;100239.56;5150096;28;20310;-75
2023/06/26 09:28:48;;;;;;;2.90;2.37;;;;;;;37.18;52.99;100243.34;5153756;28;20057;-76
2023/06/26 09:31:20;;;;;;;3.88;2.40;;;;;;;36.01;54.53;100246.75;5142422;28;20282;-76
2023/06/26 09:34:02;;;;;;;3.90;2.80;;;;;;;35.69;52.68;100253.38;5144982;28;21734;-75
2023/06/26 09:36:33;;;;;;;3.90;2.45;;;;;;;36.52;51.91;100249.94;5146640;28;20043;-74
2023/06/26 09:39:08;;;;;;;3.63;2.70;;;;;;;36.78;51.03;100243.34;5148473;28;20527;-75
2023/06/26 09:41:38;;;;;;;4.07;2.67;;;;;;;35.95;53.32;100231.31;5142545;28;20031;-76
2023/06/26 09:44:11;;;;;;;6.80;3.10;;;;;;;37.01;51.47;100238.78;5144791;28;20370;-75
2023/06/26 09:46:45;;;;;;;6.05;2.90;;;;;;;37.12;52.94;100226.28;5147475;28;20285;-76
2023/06/26 09:49:16;;;;;;;4.38;3.13;;;;;;;35.83;53.79;100226.84;5144500;28;20106;-75
2023/06/26 09:51:46;;;;;;;5.07;2.78;;;;;;;35.54;54.98;100217.47;5141539;28;20596;-75
2023/06/26 09:54:18;;;;;;;4.70;3.30;;;;;;;35.71;53.35;100237.63;5129397;28;20043;-75
2023/06/26 09:56:49;;;;;;;9.38;3.53;;;;;;;34.12;54.91;100240.00;5145692;28;20293;-73
2023/06/26 09:59:19;;;;;;;4.20;3.15;;;;;;;34.23;55.46;100252.94;5138920;28;20034;-75
2023/06/26 10:01:59;;;;;;;5.10;3.05;;;;;;;33.79;55.58;100260.94;5127675;28;20125;-74
2023/06/26 10:04:29;;;;;;;4.35;2.92;;;;;;;34.57;54.97;100258.03;5131271;28;20502;-75
2023/06/26 10:07:02;;;;;;;5.07;2.78;;;;;;;34.56;54.35;100254.50;5131240;28;20053;-75
2023/06/26 10:09:32;;;;;;;3.47;2.60;;;;;;;35.23;53.11;100250.16;5119238;28;20042;-75
2023/06/26 10:12:10;;;;;;;4.93;2.97;;;;;;;35.33;54.06;100258.66;5145592;28;20030;-75
2023/06/26 10:14:41;;;;;;;4.47;2.70;;;;;;;34.77;54.30;100250.66;5150778;28;20088;-74
2023/06/26 10:17:16;;;;;;;4.88;3.13;;;;;;;34.34;56.94;100244.16;5130559;28;20042;-74
2023/06/26 10:19:47;;;;;;;4.05;2.95;;;;;;;33.50;58.56;100255.94;5150417;28;20022;-75
2023/06/26 10:22:21;;;;;;;6.22;2.95;;;;;;;32.94;59.18;100254.63;5120491;28;20521;-75
2023/06/26 10:24:55;;;;;;;7.60;2.88;;;;;;;32.81;59.20;100253.75;5116443;28;20030;-74
2023/06/26 10:27:33;;;;;;;4.68;3.10;;;;;;;32.40;59.81;100251.06;5147703;28;20033;-75
2023/06/26 10:30:09;;;;;;;4.82;3.10;;;;;;;32.88;59.02;100250.00;5147476;28;20027;-74
2023/06/26 10:32:40;;;;;;;4.47;3.30;;;;;;;32.01;59.53;100250.84;5146277;28;20022;-74
2023/06/26 10:35:11;;;;;;;5.10;3.53;;;;;;;32.04;61.14;100266.69;5131031;28;20037;-75
2023/06/26 10:37:49;;;;;;;7.00;3.58;;;;;;;31.76;61.19;100274.00;5149560;28;20492;-75
2023/06/26 10:40:26;;;;;;;5.55;3.55;;;;;;;31.69;61.04;100286.63;5133060;28;20232;-75
2023/06/26 10:43:10;;;;;;;6.15;3.72;;;;;;;31.52;62.36;100287.09;5132399;28;20038;-75
2023/06/26 10:45:52;;;;;;;7.03;3.90;;;;;;;31.75;62.15;100285.00;5151981;28;20022;-73
2023/06/26 10:48:22;;;;;;;6.97;3.60;;;;;;;31.61;61.79;100285.88;5129544;28;20039;-74
2023/06/26 10:50:53;;;;;;;7.10;3.85;;;;;;;31.41;62.70;100285.75;5148207;28;20018;-74
2023/06/26 10:53:26;;;;;;;13.52;4.32;;;;;;;30.97;64.50;100293.16;5152367;28;20412;-74
2023/06/26 10:55:59;;;;;;;8.40;4.28;;;;;;;30.94;64.10;100304.34;5143410;28;20546;-74
2023/06/26 10:58:34;;;;;;;5.50;3.60;;;;;;;30.31;65.62;100300.63;5150252;28;20042;-74
2023/06/26 11:01:11;;;;;;;7.10;4.22;;;;;;;30.23;66.82;100307.97;5142931;28;20366;-75
2023/06/26 11:03:44;;;;;;;5.72;4.20;;;;;;;29.92;66.48;100310.78;5128920;28;20038;-75
2023/06/26 11:06:17;;;;;;;6.65;4.35;;;;;;;29.35;67.01;100315.00;5132064;28;20069;-74
2023/06/26 11:08:54;;;;;;;7.22;4.40;;;;;;;29.04;66.86;100313.38;5131671;28;20473;-73
2023/06/26 11:11:53;;;;;;;7.50;4.60;;;;;;;29.36;67.44;100319.38;5134679;28;20112;-74
2023/06/26 11:14:25;;;;;;;10.30;5.55;;;;;;;29.45;67.24;100322.84;5142684;28;20037;-74
2023/06/26 11:16:57;;;;;;;6.43;4.28;;;;;;;29.13;67.52;100317.69;5132189;28;20272;-73
2023/06/26 11:19:31;;;;;;;9.00;4.40;;;;;;;28.97;68.11;100328.56;5105072;28;20039;-74
2023/06/26 11:22:04;;;;;;;5.97;4.10;;;;;;;28.68;68.50;100349.88;5117225;28;20031;-74
2023/06/26 11:24:34;;;;;;;10.02;4.82;;;;;;;28.62;68.44;100334.44;5134710;28;20158;-74
2023/06/26 11:27:05;;;;;;;7.13;4.47;;;;;;;28.12;69.11;100341.16;5142177;28;20480;-74
2023/06/26 11:29:36;;;;;;;7.93;4.03;;;;;;;28.39;69.40;100343.44;5120783;28;20023;-73
2023/06/26 11:32:07;;;;;;;9.15;4.30;;;;;;;28.32;69.03;100343.28;5141688;28;20035;-72
2023/06/26 11:34:38;;;;;;;7.13;4.72;;;;;;;28.13;69.36;100346.34;5149244;28;20042;-74
2023/06/26 11:37:11;;;;;;;8.18;4.20;;;;;;;28.30;71.10;100344.47;5142280;28;20030;-73
2023/06/26 11:39:42;;;;;;;12.75;4.93;;;;;;;28.46;71.35;100345.25;5126892;28;20089;-74
2023/06/26 11:42:12;;;;;;;9.50;5.17;;;;;;;28.49;72.34;100360.22;5144028;28;20276;-72